Aviation Digital Data Service (ADDS)

Output produced by METARs form (1155 UTC 25 June 2019)
found at http://www.aviationweather.gov/metar/data/
 
METAR text: LATI 251150Z 29002KT 9999 SCT130 34/16 Q1016 NOSIG
Conditions at: LATI (TIRANA , AL) observed 1150 UTC 25 June 2019
Temperature: 34.0°C (93°F)
Dewpoint: 16.0°C (61°F) [RH = 34%]
Pressure (altimeter): 30.00 inches Hg (1016.0 mb)
Winds: from the WNW (290 degrees) at 2 MPH (2 knots; 1.0 m/s)
Visibility: 6 or more miles (10+ km)
Ceiling: at least 12,000 feet AGL
Clouds: scattered clouds at 13000 feet AGL
Weather: no significant weather observed at this time

METAR text: LATI 251120Z 27005KT 230V340 9999 FEW140 33/18 Q1016 NOSIG
Conditions at: LATI (TIRANA , AL) observed 1120 UTC 25 June 2019
Temperature: 33.0°C (91°F)
Dewpoint: 18.0°C (64°F) [RH = 41%]
Pressure (altimeter): 30.00 inches Hg (1016.0 mb)
Winds: from the W (270 degrees) at 6 MPH (5 knots; 2.6 m/s)
Visibility: 6 or more miles (10+ km)
Ceiling: at least 12,000 feet AGL
Clouds: few clouds at 14000 feet AGL
Weather: no significant weather observed at this time

METAR text: LATI 251050Z 35004KT 310V030 9999 FEW140 33/18 Q1016 NOSIG
Conditions at: LATI (TIRANA , AL) observed 1050 UTC 25 June 2019
Temperature: 33.0°C (91°F)
Dewpoint: 18.0°C (64°F) [RH = 41%]
Pressure (altimeter): 30.00 inches Hg (1016.0 mb)
Winds: from the N (350 degrees) at 5 MPH (4 knots; 2.1 m/s)
Visibility: 6 or more miles (10+ km)
Ceiling: at least 12,000 feet AGL
Clouds: few clouds at 14000 feet AGL
Weather: no significant weather observed at this time

METAR text: LATI 251020Z VRB02KT 9999 FEW130 33/18 Q1016 NOSIG
Conditions at: LATI (TIRANA , AL) observed 1020 UTC 25 June 2019
Temperature: 33.0°C (91°F)
Dewpoint: 18.0°C (64°F) [RH = 41%]
Pressure (altimeter): 30.00 inches Hg (1016.0 mb)
Winds: variable direction winds at 2 MPH (2 knots; 1.0 m/s)
Visibility: 6 or more miles (10+ km)
Ceiling: at least 12,000 feet AGL
Clouds: few clouds at 13000 feet AGL
Weather: no significant weather observed at this time

METAR text: LATI 250950Z 28001KT 9999 FEW130 34/18 Q1016 NOSIG
Conditions at: LATI (TIRANA , AL) observed 0950 UTC 25 June 2019
Temperature: 34.0°C (93°F)
Dewpoint: 18.0°C (64°F) [RH = 39%]
Pressure (altimeter): 30.00 inches Hg (1016.0 mb)
Winds: from the W (280 degrees) at 1 MPH (1 knots; 0.5 m/s)
Visibility: 6 or more miles (10+ km)
Ceiling: at least 12,000 feet AGL
Clouds: few clouds at 13000 feet AGL
Weather: no significant weather observed at this time

METAR text: LATI 250920Z 27003KT 220V320 9999 SCT130 30/19 Q1016 NOSIG
Conditions at: LATI (TIRANA , AL) observed 0920 UTC 25 June 2019
Temperature: 30.0°C (86°F)
Dewpoint: 19.0°C (66°F) [RH = 52%]
Pressure (altimeter): 30.00 inches Hg (1016.0 mb)
Winds: from the W (270 degrees) at 3 MPH (3 knots; 1.5 m/s)
Visibility: 6 or more miles (10+ km)
Ceiling: at least 12,000 feet AGL
Clouds: scattered clouds at 13000 feet AGL
Weather: no significant weather observed at this time

METAR text: LATI 250850Z 31003KT 270V350 9999 SCT120 28/19 Q1016 NOSIG
Conditions at: LATI (TIRANA , AL) observed 0850 UTC 25 June 2019
Temperature: 28.0°C (82°F)
Dewpoint: 19.0°C (66°F) [RH = 58%]
Pressure (altimeter): 30.00 inches Hg (1016.0 mb)
Winds: from the NW (310 degrees) at 3 MPH (3 knots; 1.5 m/s)
Visibility: 6 or more miles (10+ km)
Ceiling: at least 12,000 feet AGL
Clouds: scattered clouds at 12000 feet AGL
Weather: no significant weather observed at this time

METAR text: LATI 250820Z 34004KT 300V030 9999 SCT120 28/20 Q1016 NOSIG
Conditions at: LATI (TIRANA , AL) observed 0820 UTC 25 June 2019
Temperature: 28.0°C (82°F)
Dewpoint: 20.0°C (68°F) [RH = 62%]
Pressure (altimeter): 30.00 inches Hg (1016.0 mb)
Winds: from the NNW (340 degrees) at 5 MPH (4 knots; 2.1 m/s)
Visibility: 6 or more miles (10+ km)
Ceiling: at least 12,000 feet AGL
Clouds: scattered clouds at 12000 feet AGL
Weather: no significant weather observed at this time

METAR text: LATI 250750Z VRB01KT 9999 SCT120 26/19 Q1016 NOSIG
Conditions at: LATI (TIRANA , AL) observed 0750 UTC 25 June 2019
Temperature: 26.0°C (79°F)
Dewpoint: 19.0°C (66°F) [RH = 65%]
Pressure (altimeter): 30.00 inches Hg (1016.0 mb)
Winds: variable direction winds at 1 MPH (1 knots; 0.5 m/s)
Visibility: 6 or more miles (10+ km)
Ceiling: at least 12,000 feet AGL
Clouds: scattered clouds at 12000 feet AGL
Weather: no significant weather observed at this time

METAR text: LATI 250720Z 00000KT 9999 SCT120 24/18 Q1016 NOSIG
Conditions at: LATI (TIRANA , AL) observed 0720 UTC 25 June 2019
Temperature: 24.0°C (75°F)
Dewpoint: 18.0°C (64°F) [RH = 69%]
Pressure (altimeter): 30.00 inches Hg (1016.0 mb)
Winds: calm
Visibility: 6 or more miles (10+ km)
Ceiling: at least 12,000 feet AGL
Clouds: scattered clouds at 12000 feet AGL
Weather: no significant weather observed at this time

METAR text: LATI 250650Z VRB01KT 9999 SCT110 23/19 Q1015 NOSIG
Conditions at: LATI (TIRANA , AL) observed 0650 UTC 25 June 2019
Temperature: 23.0°C (73°F)
Dewpoint: 19.0°C (66°F) [RH = 78%]
Pressure (altimeter): 29.97 inches Hg (1015.0 mb)
Winds: variable direction winds at 1 MPH (1 knots; 0.5 m/s)
Visibility: 6 or more miles (10+ km)
Ceiling: at least 12,000 feet AGL
Clouds: scattered clouds at 11000 feet AGL
Weather: no significant weather observed at this time

METAR text: LATI 250620Z 34002KT CAVOK 24/19 Q1015 NOSIG
Conditions at: LATI (TIRANA , AL) observed 0620 UTC 25 June 2019
Temperature: 24.0°C (75°F)
Dewpoint: 19.0°C (66°F) [RH = 74%]
Pressure (altimeter): 29.97 inches Hg (1015.0 mb)
Winds: from the NNW (340 degrees) at 2 MPH (2 knots; 1.0 m/s)
Visibility: 6 or more miles (10+ km)
Ceiling: ceiling and visibility are OK
Clouds: unknown
Weather: no significant weather observed at this time

METAR text: LATI 250550Z VRB02KT CAVOK 23/19 Q1015 NOSIG
Conditions at: LATI (TIRANA , AL) observed 0550 UTC 25 June 2019
Temperature: 23.0°C (73°F)
Dewpoint: 19.0°C (66°F) [RH = 78%]
Pressure (altimeter): 29.97 inches Hg (1015.0 mb)
Winds: variable direction winds at 2 MPH (2 knots; 1.0 m/s)
Visibility: 6 or more miles (10+ km)
Ceiling: ceiling and visibility are OK
Clouds: unknown
Weather: no significant weather observed at this time

METAR text: LATI 250520Z VRB02KT CAVOK 21/19 Q1015 NOSIG
Conditions at: LATI (TIRANA , AL) observed 0520 UTC 25 June 2019
Temperature: 21.0°C (70°F)
Dewpoint: 19.0°C (66°F) [RH = 88%]
Pressure (altimeter): 29.97 inches Hg (1015.0 mb)
Winds: variable direction winds at 2 MPH (2 knots; 1.0 m/s)
Visibility: 6 or more miles (10+ km)
Ceiling: ceiling and visibility are OK
Clouds: unknown
Weather: no significant weather observed at this time

METAR text: LATI 250450Z 17002KT CAVOK 19/18 Q1015 NOSIG
Conditions at: LATI (TIRANA , AL) observed 0450 UTC 25 June 2019
Temperature: 19.0°C (66°F)
Dewpoint: 18.0°C (64°F) [RH = 94%]
Pressure (altimeter): 29.97 inches Hg (1015.0 mb)
Winds: from the S (170 degrees) at 2 MPH (2 knots; 1.0 m/s)
Visibility: 6 or more miles (10+ km)
Ceiling: ceiling and visibility are OK
Clouds: unknown
Weather: no significant weather observed at this time

METAR text: LATI 250420Z VRB02KT CAVOK 19/18 Q1014 NOSIG
Conditions at: LATI (TIRANA , AL) observed 0420 UTC 25 June 2019
Temperature: 19.0°C (66°F)
Dewpoint: 18.0°C (64°F) [RH = 94%]
Pressure (altimeter): 29.94 inches Hg (1014.0 mb)
Winds: variable direction winds at 2 MPH (2 knots; 1.0 m/s)
Visibility: 6 or more miles (10+ km)
Ceiling: ceiling and visibility are OK
Clouds: unknown
Weather: no significant weather observed at this time

METAR text: LATI 250350Z VRB02KT CAVOK 18/17 Q1014 NOSIG
Conditions at: LATI (TIRANA , AL) observed 0350 UTC 25 June 2019
Temperature: 18.0°C (64°F)
Dewpoint: 17.0°C (63°F) [RH = 94%]
Pressure (altimeter): 29.94 inches Hg (1014.0 mb)
Winds: variable direction winds at 2 MPH (2 knots; 1.0 m/s)
Visibility: 6 or more miles (10+ km)
Ceiling: ceiling and visibility are OK
Clouds: unknown
Weather: no significant weather observed at this time

METAR text: LATI 250320Z VRB02KT CAVOK 17/17 Q1014 NOSIG
Conditions at: LATI (TIRANA , AL) observed 0320 UTC 25 June 2019
Temperature: 17.0°C (63°F)
Dewpoint: 17.0°C (63°F) [RH = 100%]
Pressure (altimeter): 29.94 inches Hg (1014.0 mb)
Winds: variable direction winds at 2 MPH (2 knots; 1.0 m/s)
Visibility: 6 or more miles (10+ km)
Ceiling: ceiling and visibility are OK
Clouds: unknown
Weather: no significant weather observed at this time

METAR text: LATI 250250Z 00000KT CAVOK 18/16 Q1014 NOSIG
Conditions at: LATI (TIRANA , AL) observed 0250 UTC 25 June 2019
Temperature: 18.0°C (64°F)
Dewpoint: 16.0°C (61°F) [RH = 88%]
Pressure (altimeter): 29.94 inches Hg (1014.0 mb)
Winds: calm
Visibility: 6 or more miles (10+ km)
Ceiling: ceiling and visibility are OK
Clouds: unknown
Weather: no significant weather observed at this time

METAR text: LATI 250220Z 31003KT 260V030 CAVOK 17/16 Q1014 NOSIG
Conditions at: LATI (TIRANA , AL) observed 0220 UTC 25 June 2019
Temperature: 17.0°C (63°F)
Dewpoint: 16.0°C (61°F) [RH = 94%]
Pressure (altimeter): 29.94 inches Hg (1014.0 mb)
Winds: from the NW (310 degrees) at 3 MPH (3 knots; 1.5 m/s)
Visibility: 6 or more miles (10+ km)
Ceiling: ceiling and visibility are OK
Clouds: unknown
Weather: no significant weather observed at this time

METAR text: LATI 250150Z 18004KT CAVOK 18/17 Q1014 NOSIG
Conditions at: LATI (TIRANA , AL) observed 0150 UTC 25 June 2019
Temperature: 18.0°C (64°F)
Dewpoint: 17.0°C (63°F) [RH = 94%]
Pressure (altimeter): 29.94 inches Hg (1014.0 mb)
Winds: from the S (180 degrees) at 5 MPH (4 knots; 2.1 m/s)
Visibility: 6 or more miles (10+ km)
Ceiling: ceiling and visibility are OK
Clouds: unknown
Weather: no significant weather observed at this time

METAR text: LATI 250120Z VRB01KT CAVOK 18/17 Q1014 NOSIG
Conditions at: LATI (TIRANA , AL) observed 0120 UTC 25 June 2019
Temperature: 18.0°C (64°F)
Dewpoint: 17.0°C (63°F) [RH = 94%]
Pressure (altimeter): 29.94 inches Hg (1014.0 mb)
Winds: variable direction winds at 1 MPH (1 knots; 0.5 m/s)
Visibility: 6 or more miles (10+ km)
Ceiling: ceiling and visibility are OK
Clouds: unknown
Weather: no significant weather observed at this time

METAR text: LATI 250050Z 13003KT 080V140 CAVOK 18/17 Q1015 NOSIG
Conditions at: LATI (TIRANA , AL) observed 0050 UTC 25 June 2019
Temperature: 18.0°C (64°F)
Dewpoint: 17.0°C (63°F) [RH = 94%]
Pressure (altimeter): 29.97 inches Hg (1015.0 mb)
Winds: from the SE (130 degrees) at 3 MPH (3 knots; 1.5 m/s)
Visibility: 6 or more miles (10+ km)
Ceiling: ceiling and visibility are OK
Clouds: unknown
Weather: no significant weather observed at this time

METAR text: LATI 250020Z 09002KT CAVOK 18/17 Q1015 NOSIG
Conditions at: LATI (TIRANA , AL) observed 0020 UTC 25 June 2019
Temperature: 18.0°C (64°F)
Dewpoint: 17.0°C (63°F) [RH = 94%]
Pressure (altimeter): 29.97 inches Hg (1015.0 mb)
Winds: from the E (90 degrees) at 2 MPH (2 knots; 1.0 m/s)
Visibility: 6 or more miles (10+ km)
Ceiling: ceiling and visibility are OK
Clouds: unknown
Weather: no significant weather observed at this time

METAR text: LATI 242350Z VRB01KT CAVOK 19/18 Q1014 NOSIG
Conditions at: LATI (TIRANA , AL) observed 2350 UTC 24 June 2019
Temperature: 19.0°C (66°F)
Dewpoint: 18.0°C (64°F) [RH = 94%]
Pressure (altimeter): 29.94 inches Hg (1014.0 mb)
Winds: variable direction winds at 1 MPH (1 knots; 0.5 m/s)
Visibility: 6 or more miles (10+ km)
Ceiling: ceiling and visibility are OK
Clouds: unknown
Weather: no significant weather observed at this time

METAR text: LATI 242320Z VRB03KT CAVOK 19/18 Q1014 NOSIG
Conditions at: LATI (TIRANA , AL) observed 2320 UTC 24 June 2019
Temperature: 19.0°C (66°F)
Dewpoint: 18.0°C (64°F) [RH = 94%]
Pressure (altimeter): 29.94 inches Hg (1014.0 mb)
Winds: variable direction winds at 3 MPH (3 knots; 1.5 m/s)
Visibility: 6 or more miles (10+ km)
Ceiling: ceiling and visibility are OK
Clouds: unknown
Weather: no significant weather observed at this time

METAR text: LATI 242250Z 09003KT 030V130 CAVOK 19/18 Q1014 NOSIG
Conditions at: LATI (TIRANA , AL) observed 2250 UTC 24 June 2019
Temperature: 19.0°C (66°F)
Dewpoint: 18.0°C (64°F) [RH = 94%]
Pressure (altimeter): 29.94 inches Hg (1014.0 mb)
Winds: from the E (90 degrees) at 3 MPH (3 knots; 1.5 m/s)
Visibility: 6 or more miles (10+ km)
Ceiling: ceiling and visibility are OK
Clouds: unknown
Weather: no significant weather observed at this time

METAR text: LATI 242220Z VRB02KT CAVOK 20/18 Q1014 NOSIG
Conditions at: LATI (TIRANA , AL) observed 2220 UTC 24 June 2019
Temperature: 20.0°C (68°F)
Dewpoint: 18.0°C (64°F) [RH = 88%]
Pressure (altimeter): 29.94 inches Hg (1014.0 mb)
Winds: variable direction winds at 2 MPH (2 knots; 1.0 m/s)
Visibility: 6 or more miles (10+ km)
Ceiling: ceiling and visibility are OK
Clouds: unknown
Weather: no significant weather observed at this time

METAR text: LATI 242150Z 00000KT CAVOK 21/19 Q1015 NOSIG
Conditions at: LATI (TIRANA , AL) observed 2150 UTC 24 June 2019
Temperature: 21.0°C (70°F)
Dewpoint: 19.0°C (66°F) [RH = 88%]
Pressure (altimeter): 29.97 inches Hg (1015.0 mb)
Winds: calm
Visibility: 6 or more miles (10+ km)
Ceiling: ceiling and visibility are OK
Clouds: unknown
Weather: no significant weather observed at this time

METAR text: LATI 242120Z 00000KT CAVOK 20/19 Q1015 NOSIG
Conditions at: LATI (TIRANA , AL) observed 2120 UTC 24 June 2019
Temperature: 20.0°C (68°F)
Dewpoint: 19.0°C (66°F) [RH = 94%]
Pressure (altimeter): 29.97 inches Hg (1015.0 mb)
Winds: calm
Visibility: 6 or more miles (10+ km)
Ceiling: ceiling and visibility are OK
Clouds: unknown
Weather: no significant weather observed at this time

METAR text: LATI 242050Z VRB01KT CAVOK 20/19 Q1015 NOSIG
Conditions at: LATI (TIRANA , AL) observed 2050 UTC 24 June 2019
Temperature: 20.0°C (68°F)
Dewpoint: 19.0°C (66°F) [RH = 94%]
Pressure (altimeter): 29.97 inches Hg (1015.0 mb)
Winds: variable direction winds at 1 MPH (1 knots; 0.5 m/s)
Visibility: 6 or more miles (10+ km)
Ceiling: ceiling and visibility are OK
Clouds: unknown
Weather: no significant weather observed at this time

METAR text: LATI 242020Z VRB01KT CAVOK 22/19 Q1015 NOSIG
Conditions at: LATI (TIRANA , AL) observed 2020 UTC 24 June 2019
Temperature: 22.0°C (72°F)
Dewpoint: 19.0°C (66°F) [RH = 83%]
Pressure (altimeter): 29.97 inches Hg (1015.0 mb)
Winds: variable direction winds at 1 MPH (1 knots; 0.5 m/s)
Visibility: 6 or more miles (10+ km)
Ceiling: ceiling and visibility are OK
Clouds: unknown
Weather: no significant weather observed at this time

METAR text: LATI 241950Z 00000KT CAVOK 23/19 Q1014 NOSIG
Conditions at: LATI (TIRANA , AL) observed 1950 UTC 24 June 2019
Temperature: 23.0°C (73°F)
Dewpoint: 19.0°C (66°F) [RH = 78%]
Pressure (altimeter): 29.94 inches Hg (1014.0 mb)
Winds: calm
Visibility: 6 or more miles (10+ km)
Ceiling: ceiling and visibility are OK
Clouds: unknown
Weather: no significant weather observed at this time

METAR text: LATI 241920Z VRB01KT CAVOK 23/19 Q1014 NOSIG
Conditions at: LATI (TIRANA , AL) observed 1920 UTC 24 June 2019
Temperature: 23.0°C (73°F)
Dewpoint: 19.0°C (66°F) [RH = 78%]
Pressure (altimeter): 29.94 inches Hg (1014.0 mb)
Winds: variable direction winds at 1 MPH (1 knots; 0.5 m/s)
Visibility: 6 or more miles (10+ km)
Ceiling: ceiling and visibility are OK
Clouds: unknown
Weather: no significant weather observed at this time

METAR text: LATI 241850Z 01003KT CAVOK 23/19 Q1014 NOSIG
Conditions at: LATI (TIRANA , AL) observed 1850 UTC 24 June 2019
Temperature: 23.0°C (73°F)
Dewpoint: 19.0°C (66°F) [RH = 78%]
Pressure (altimeter): 29.94 inches Hg (1014.0 mb)
Winds: from the N (10 degrees) at 3 MPH (3 knots; 1.5 m/s)
Visibility: 6 or more miles (10+ km)
Ceiling: ceiling and visibility are OK
Clouds: unknown
Weather: no significant weather observed at this time

METAR text: LATI 241820Z VRB02KT CAVOK 22/19 Q1014 NOSIG
Conditions at: LATI (TIRANA , AL) observed 1820 UTC 24 June 2019
Temperature: 22.0°C (72°F)
Dewpoint: 19.0°C (66°F) [RH = 83%]
Pressure (altimeter): 29.94 inches Hg (1014.0 mb)
Winds: variable direction winds at 2 MPH (2 knots; 1.0 m/s)
Visibility: 6 or more miles (10+ km)
Ceiling: ceiling and visibility are OK
Clouds: unknown
Weather: no significant weather observed at this time

METAR text: LATI 241750Z 01002KT CAVOK 24/20 Q1014 NOSIG
Conditions at: LATI (TIRANA , AL) observed 1750 UTC 24 June 2019
Temperature: 24.0°C (75°F)
Dewpoint: 20.0°C (68°F) [RH = 78%]
Pressure (altimeter): 29.94 inches Hg (1014.0 mb)
Winds: from the N (10 degrees) at 2 MPH (2 knots; 1.0 m/s)
Visibility: 6 or more miles (10+ km)
Ceiling: ceiling and visibility are OK
Clouds: unknown
Weather: no significant weather observed at this time

METAR text: LATI 241720Z 33005KT CAVOK 24/19 Q1014 NOSIG
Conditions at: LATI (TIRANA , AL) observed 1720 UTC 24 June 2019
Temperature: 24.0°C (75°F)
Dewpoint: 19.0°C (66°F) [RH = 74%]
Pressure (altimeter): 29.94 inches Hg (1014.0 mb)
Winds: from the NNW (330 degrees) at 6 MPH (5 knots; 2.6 m/s)
Visibility: 6 or more miles (10+ km)
Ceiling: ceiling and visibility are OK
Clouds: unknown
Weather: no significant weather observed at this time

METAR text: LATI 241650Z 33003KT CAVOK 25/19 Q1014 NOSIG
Conditions at: LATI (TIRANA , AL) observed 1650 UTC 24 June 2019
Temperature: 25.0°C (77°F)
Dewpoint: 19.0°C (66°F) [RH = 69%]
Pressure (altimeter): 29.94 inches Hg (1014.0 mb)
Winds: from the NNW (330 degrees) at 3 MPH (3 knots; 1.5 m/s)
Visibility: 6 or more miles (10+ km)
Ceiling: ceiling and visibility are OK
Clouds: unknown
Weather: no significant weather observed at this time

METAR text: LATI 241620Z 33005KT 9999 SCT130 25/20 Q1014 NOSIG
Conditions at: LATI (TIRANA , AL) observed 1620 UTC 24 June 2019
Temperature: 25.0°C (77°F)
Dewpoint: 20.0°C (68°F) [RH = 74%]
Pressure (altimeter): 29.94 inches Hg (1014.0 mb)
Winds: from the NNW (330 degrees) at 6 MPH (5 knots; 2.6 m/s)
Visibility: 6 or more miles (10+ km)
Ceiling: at least 12,000 feet AGL
Clouds: scattered clouds at 13000 feet AGL
Weather: no significant weather observed at this time

METAR text: LATI 241550Z 36003KT 330V040 9999 SCT130 24/21 Q1014 NOSIG
Conditions at: LATI (TIRANA , AL) observed 1550 UTC 24 June 2019
Temperature: 24.0°C (75°F)
Dewpoint: 21.0°C (70°F) [RH = 83%]
Pressure (altimeter): 29.94 inches Hg (1014.0 mb)
Winds: from the N (360 degrees) at 3 MPH (3 knots; 1.5 m/s)
Visibility: 6 or more miles (10+ km)
Ceiling: at least 12,000 feet AGL
Clouds: scattered clouds at 13000 feet AGL
Weather: no significant weather observed at this time

METAR text: LATI 241520Z VRB02KT 9999 BKN150 24/20 Q1014 NOSIG
Conditions at: LATI (TIRANA , AL) observed 1520 UTC 24 June 2019
Temperature: 24.0°C (75°F)
Dewpoint: 20.0°C (68°F) [RH = 78%]
Pressure (altimeter): 29.94 inches Hg (1014.0 mb)
Winds: variable direction winds at 2 MPH (2 knots; 1.0 m/s)
Visibility: 6 or more miles (10+ km)
Ceiling: 15000 feet AGL
Clouds: broken clouds at 15000 feet AGL
Weather: no significant weather observed at this time

METAR text: LATI 241450Z VRB02KT 9999 -RA FEW040CB SCT090 BKN150 24/20 Q1014 NOSIG
Conditions at: LATI (TIRANA , AL) observed 1450 UTC 24 June 2019
Temperature: 24.0°C (75°F)
Dewpoint: 20.0°C (68°F) [RH = 78%]
Pressure (altimeter): 29.94 inches Hg (1014.0 mb)
Winds: variable direction winds at 2 MPH (2 knots; 1.0 m/s)
Visibility: 6 or more miles (10+ km)
Ceiling: 15000 feet AGL
Clouds: few clouds at 4000 feet AGL
scattered clouds at 9000 feet AGL
broken clouds at 15000 feet AGL
Weather: -RA  (light rain)

METAR text: LATI 241420Z VRB01KT 9999 -RA FEW040CB SCT090 BKN150 24/18 Q1014 NOSIG
Conditions at: LATI (TIRANA , AL) observed 1420 UTC 24 June 2019
Temperature: 24.0°C (75°F)
Dewpoint: 18.0°C (64°F) [RH = 69%]
Pressure (altimeter): 29.94 inches Hg (1014.0 mb)
Winds: variable direction winds at 1 MPH (1 knots; 0.5 m/s)
Visibility: 6 or more miles (10+ km)
Ceiling: 15000 feet AGL
Clouds: few clouds at 4000 feet AGL
scattered clouds at 9000 feet AGL
broken clouds at 15000 feet AGL
Weather: -RA  (light rain)

METAR text: LATI 241350Z VRB02KT 9999 -RA FEW040CB SCT085 BKN110 24/20 Q1014 NOSIG
Conditions at: LATI (TIRANA , AL) observed 1350 UTC 24 June 2019
Temperature: 24.0°C (75°F)
Dewpoint: 20.0°C (68°F) [RH = 78%]
Pressure (altimeter): 29.94 inches Hg (1014.0 mb)
Winds: variable direction winds at 2 MPH (2 knots; 1.0 m/s)
Visibility: 6 or more miles (10+ km)
Ceiling: 11000 feet AGL
Clouds: few clouds at 4000 feet AGL
scattered clouds at 8500 feet AGL
broken clouds at 11000 feet AGL
Weather: -RA  (light rain)

METAR text: LATI 241320Z VRB02KT 9999 FEW040CB SCT095 BKN120 23/18 Q1014 NOSIG
Conditions at: LATI (TIRANA , AL) observed 1320 UTC 24 June 2019
Temperature: 23.0°C (73°F)
Dewpoint: 18.0°C (64°F) [RH = 73%]
Pressure (altimeter): 29.94 inches Hg (1014.0 mb)
Winds: variable direction winds at 2 MPH (2 knots; 1.0 m/s)
Visibility: 6 or more miles (10+ km)
Ceiling: 12000 feet AGL
Clouds: few clouds at 4000 feet AGL
scattered clouds at 9500 feet AGL
broken clouds at 12000 feet AGL
Weather: no significant weather observed at this time

METAR text: LATI 241250Z VRB01KT 9999 -RA SCT057 BKN098 22/19 Q1014 NOSIG
Conditions at: LATI (TIRANA , AL) observed 1250 UTC 24 June 2019
Temperature: 22.0°C (72°F)
Dewpoint: 19.0°C (66°F) [RH = 83%]
Pressure (altimeter): 29.94 inches Hg (1014.0 mb)
Winds: variable direction winds at 1 MPH (1 knots; 0.5 m/s)
Visibility: 6 or more miles (10+ km)
Ceiling: 9800 feet AGL
Clouds: scattered clouds at 5700 feet AGL
broken clouds at 9800 feet AGL
Weather: -RA  (light rain)

METAR text: LATI 241220Z VRB02KT 9999 -RA FEW033CB SCT055 BKN080 21/18 Q1014 NOSIG
Conditions at: LATI (TIRANA , AL) observed 1220 UTC 24 June 2019
Temperature: 21.0°C (70°F)
Dewpoint: 18.0°C (64°F) [RH = 83%]
Pressure (altimeter): 29.94 inches Hg (1014.0 mb)
Winds: variable direction winds at 2 MPH (2 knots; 1.0 m/s)
Visibility: 6 or more miles (10+ km)
Ceiling: 8000 feet AGL
Clouds: few clouds at 3300 feet AGL
scattered clouds at 5500 feet AGL
broken clouds at 8000 feet AGL
Weather: -RA  (light rain)

METAR text: LATI 241150Z VRB01KT 8000 TSRA FEW016CB BKN045 BKN080 20/18 Q1015 TEMPO 3000 TSRA
Conditions at: LATI (TIRANA , AL) observed 1150 UTC 24 June 2019
Temperature: 20.0°C (68°F)
Dewpoint: 18.0°C (64°F) [RH = 88%]
Pressure (altimeter): 29.97 inches Hg (1015.0 mb)
Winds: variable direction winds at 1 MPH (1 knots; 0.5 m/s)
Visibility: 5 miles ( 8 km)
Ceiling: 4500 feet AGL
Clouds: few clouds at 1600 feet AGL
broken clouds at 4500 feet AGL
broken clouds at 8000 feet AGL
Weather: TSRA  (rain associated with thunderstorm(s))

METAR text: LATI 241120Z 03011KT 9999 TS SCT025CB BKN040 BKN075 21/16 Q1015 TEMPO 3000 TSRA
Conditions at: LATI (TIRANA , AL) observed 1120 UTC 24 June 2019
Temperature: 21.0°C (70°F)
Dewpoint: 16.0°C (61°F) [RH = 73%]
Pressure (altimeter): 29.97 inches Hg (1015.0 mb)
Winds: from the NNE (30 degrees) at 13 MPH (11 knots; 5.7 m/s)
Visibility: 6 or more miles (10+ km)
Ceiling: 4000 feet AGL
Clouds: scattered clouds at 2500 feet AGL
broken clouds at 4000 feet AGL
broken clouds at 7500 feet AGL
Weather: TS  (thunderstorm)

METAR text: LATI 241050Z 03010KT 330V070 9999 VCTS SCT024CB BKN040 24/15 Q1014 NOSIG
Conditions at: LATI (TIRANA , AL) observed 1050 UTC 24 June 2019
Temperature: 24.0°C (75°F)
Dewpoint: 15.0°C (59°F) [RH = 57%]
Pressure (altimeter): 29.94 inches Hg (1014.0 mb)
Winds: from the NNE (30 degrees) at 12 MPH (10 knots; 5.1 m/s)
Visibility: 6 or more miles (10+ km)
Ceiling: 4000 feet AGL
Clouds: scattered clouds at 2400 feet AGL
broken clouds at 4000 feet AGL
Weather: VCTS  (thunderstorm in vicinity)

METAR text: LATI 241020Z 29006KT 260V320 9999 FEW025CB SCT130 BKN170 27/22 Q1014 NOSIG
Conditions at: LATI (TIRANA , AL) observed 1020 UTC 24 June 2019
Temperature: 27.0°C (81°F)
Dewpoint: 22.0°C (72°F) [RH = 74%]
Pressure (altimeter): 29.94 inches Hg (1014.0 mb)
Winds: from the WNW (290 degrees) at 7 MPH (6 knots; 3.1 m/s)
Visibility: 6 or more miles (10+ km)
Ceiling: 17000 feet AGL
Clouds: few clouds at 2500 feet AGL
scattered clouds at 13000 feet AGL
broken clouds at 17000 feet AGL
Weather: no significant weather observed at this time

METAR text: LATI 240950Z 26006KT 230V300 9999 FEW130 SCT200 26/22 Q1014 NOSIG
Conditions at: LATI (TIRANA , AL) observed 0950 UTC 24 June 2019
Temperature: 26.0°C (79°F)
Dewpoint: 22.0°C (72°F) [RH = 79%]
Pressure (altimeter): 29.94 inches Hg (1014.0 mb)
Winds: from the W (260 degrees) at 7 MPH (6 knots; 3.1 m/s)
Visibility: 6 or more miles (10+ km)
Ceiling: at least 12,000 feet AGL
Clouds: few clouds at 13000 feet AGL
scattered clouds at 20000 feet AGL
Weather: no significant weather observed at this time

METAR text: LATI 240920Z 28004KT 240V310 9999 FEW025 SCT120 25/22 Q1014 NOSIG
Conditions at: LATI (TIRANA , AL) observed 0920 UTC 24 June 2019
Temperature: 25.0°C (77°F)
Dewpoint: 22.0°C (72°F) [RH = 83%]
Pressure (altimeter): 29.94 inches Hg (1014.0 mb)
Winds: from the W (280 degrees) at 5 MPH (4 knots; 2.1 m/s)
Visibility: 6 or more miles (10+ km)
Ceiling: at least 12,000 feet AGL
Clouds: few clouds at 2500 feet AGL
scattered clouds at 12000 feet AGL
Weather: no significant weather observed at this time

METAR text: LATI 240850Z 27005KT 9999 FEW025TCU SCT050 23/20 Q1014 RESHRA NOSIG
Conditions at: LATI (TIRANA , AL) observed 0850 UTC 24 June 2019
Temperature: 23.0°C (73°F)
Dewpoint: 20.0°C (68°F) [RH = 83%]
Pressure (altimeter): 29.94 inches Hg (1014.0 mb)
Winds: from the W (270 degrees) at 6 MPH (5 knots; 2.6 m/s)
Visibility: 6 or more miles (10+ km)
Ceiling: at least 12,000 feet AGL
Clouds: few clouds at 2500 feet AGL
scattered clouds at 5000 feet AGL
Weather: no significant weather observed at this time

METAR text: LATI 240820Z 25003KT 150V310 9999 SCT027 BKN059 28/22 Q1014 NOSIG
Conditions at: LATI (TIRANA , AL) observed 0820 UTC 24 June 2019
Temperature: 28.0°C (82°F)
Dewpoint: 22.0°C (72°F) [RH = 70%]
Pressure (altimeter): 29.94 inches Hg (1014.0 mb)
Winds: from the WSW (250 degrees) at 3 MPH (3 knots; 1.5 m/s)
Visibility: 6 or more miles (10+ km)
Ceiling: 5900 feet AGL
Clouds: scattered clouds at 2700 feet AGL
broken clouds at 5900 feet AGL
Weather: no significant weather observed at this time

METAR text: LATI 240750Z VRB02KT 9999 FEW026 BKN040 28/20 Q1014 NOSIG
Conditions at: LATI (TIRANA , AL) observed 0750 UTC 24 June 2019
Temperature: 28.0°C (82°F)
Dewpoint: 20.0°C (68°F) [RH = 62%]
Pressure (altimeter): 29.94 inches Hg (1014.0 mb)
Winds: variable direction winds at 2 MPH (2 knots; 1.0 m/s)
Visibility: 6 or more miles (10+ km)
Ceiling: 4000 feet AGL
Clouds: few clouds at 2600 feet AGL
broken clouds at 4000 feet AGL
Weather: no significant weather observed at this time

METAR text: LATI 240720Z 00000KT 9999 FEW022 28/21 Q1014 NOSIG
Conditions at: LATI (TIRANA , AL) observed 0720 UTC 24 June 2019
Temperature: 28.0°C (82°F)
Dewpoint: 21.0°C (70°F) [RH = 66%]
Pressure (altimeter): 29.94 inches Hg (1014.0 mb)
Winds: calm
Visibility: 6 or more miles (10+ km)
Ceiling: at least 12,000 feet AGL
Clouds: few clouds at 2200 feet AGL
Weather: no significant weather observed at this time

METAR text: LATI 240650Z 00000KT 9999 FEW023 27/21 Q1014 NOSIG
Conditions at: LATI (TIRANA , AL) observed 0650 UTC 24 June 2019
Temperature: 27.0°C (81°F)
Dewpoint: 21.0°C (70°F) [RH = 70%]
Pressure (altimeter): 29.94 inches Hg (1014.0 mb)
Winds: calm
Visibility: 6 or more miles (10+ km)
Ceiling: at least 12,000 feet AGL
Clouds: few clouds at 2300 feet AGL
Weather: no significant weather observed at this time

METAR text: LATI 240620Z 15004KT 120V180 9999 FEW023 25/19 Q1014 NOSIG
Conditions at: LATI (TIRANA , AL) observed 0620 UTC 24 June 2019
Temperature: 25.0°C (77°F)
Dewpoint: 19.0°C (66°F) [RH = 69%]
Pressure (altimeter): 29.94 inches Hg (1014.0 mb)
Winds: from the SSE (150 degrees) at 5 MPH (4 knots; 2.1 m/s)
Visibility: 6 or more miles (10+ km)
Ceiling: at least 12,000 feet AGL
Clouds: few clouds at 2300 feet AGL
Weather: no significant weather observed at this time

METAR text: LATI 240550Z 15004KT CAVOK 25/20 Q1014 NOSIG
Conditions at: LATI (TIRANA , AL) observed 0550 UTC 24 June 2019
Temperature: 25.0°C (77°F)
Dewpoint: 20.0°C (68°F) [RH = 74%]
Pressure (altimeter): 29.94 inches Hg (1014.0 mb)
Winds: from the SSE (150 degrees) at 5 MPH (4 knots; 2.1 m/s)
Visibility: 6 or more miles (10+ km)
Ceiling: ceiling and visibility are OK
Clouds: unknown
Weather: no significant weather observed at this time

METAR text: LATI 240520Z 16003KT 120V180 9999 FEW023 23/19 Q1014 NOSIG
Conditions at: LATI (TIRANA , AL) observed 0520 UTC 24 June 2019
Temperature: 23.0°C (73°F)
Dewpoint: 19.0°C (66°F) [RH = 78%]
Pressure (altimeter): 29.94 inches Hg (1014.0 mb)
Winds: from the SSE (160 degrees) at 3 MPH (3 knots; 1.5 m/s)
Visibility: 6 or more miles (10+ km)
Ceiling: at least 12,000 feet AGL
Clouds: few clouds at 2300 feet AGL
Weather: no significant weather observed at this time

METAR text: LATI 240450Z 18003KT 9999 FEW020 SCT074 22/20 Q1014 NOSIG
Conditions at: LATI (TIRANA , AL) observed 0450 UTC 24 June 2019
Temperature: 22.0°C (72°F)
Dewpoint: 20.0°C (68°F) [RH = 88%]
Pressure (altimeter): 29.94 inches Hg (1014.0 mb)
Winds: from the S (180 degrees) at 3 MPH (3 knots; 1.5 m/s)
Visibility: 6 or more miles (10+ km)
Ceiling: at least 12,000 feet AGL
Clouds: few clouds at 2000 feet AGL
scattered clouds at 7400 feet AGL
Weather: no significant weather observed at this time

METAR text: LATI 240420Z 12003KT 070V140 9999 FEW019 SCT074 22/19 Q1014 NOSIG
Conditions at: LATI (TIRANA , AL) observed 0420 UTC 24 June 2019
Temperature: 22.0°C (72°F)
Dewpoint: 19.0°C (66°F) [RH = 83%]
Pressure (altimeter): 29.94 inches Hg (1014.0 mb)
Winds: from the ESE (120 degrees) at 3 MPH (3 knots; 1.5 m/s)
Visibility: 6 or more miles (10+ km)
Ceiling: at least 12,000 feet AGL
Clouds: few clouds at 1900 feet AGL
scattered clouds at 7400 feet AGL
Weather: no significant weather observed at this time

METAR text: LATI 240350Z 16004KT 9999 FEW018 SCT074 21/19 Q1014 NOSIG
Conditions at: LATI (TIRANA , AL) observed 0350 UTC 24 June 2019
Temperature: 21.0°C (70°F)
Dewpoint: 19.0°C (66°F) [RH = 88%]
Pressure (altimeter): 29.94 inches Hg (1014.0 mb)
Winds: from the SSE (160 degrees) at 5 MPH (4 knots; 2.1 m/s)
Visibility: 6 or more miles (10+ km)
Ceiling: at least 12,000 feet AGL
Clouds: few clouds at 1800 feet AGL
scattered clouds at 7400 feet AGL
Weather: no significant weather observed at this time

METAR text: LATI 240320Z 21003KT 120V240 9999 FEW015 SCT074 21/19 Q1014 NOSIG
Conditions at: LATI (TIRANA , AL) observed 0320 UTC 24 June 2019
Temperature: 21.0°C (70°F)
Dewpoint: 19.0°C (66°F) [RH = 88%]
Pressure (altimeter): 29.94 inches Hg (1014.0 mb)
Winds: from the SSW (210 degrees) at 3 MPH (3 knots; 1.5 m/s)
Visibility: 6 or more miles (10+ km)
Ceiling: at least 12,000 feet AGL
Clouds: few clouds at 1500 feet AGL
scattered clouds at 7400 feet AGL
Weather: no significant weather observed at this time

METAR text: LATI 240250Z 18003KT 9999 FEW015 SCT085 21/19 Q1014 NOSIG
Conditions at: LATI (TIRANA , AL) observed 0250 UTC 24 June 2019
Temperature: 21.0°C (70°F)
Dewpoint: 19.0°C (66°F) [RH = 88%]
Pressure (altimeter): 29.94 inches Hg (1014.0 mb)
Winds: from the S (180 degrees) at 3 MPH (3 knots; 1.5 m/s)
Visibility: 6 or more miles (10+ km)
Ceiling: at least 12,000 feet AGL
Clouds: few clouds at 1500 feet AGL
scattered clouds at 8500 feet AGL
Weather: no significant weather observed at this time

METAR text: LATI 240220Z 17001KT 9999 FEW015 SCT094 21/20 Q1014 NOSIG
Conditions at: LATI (TIRANA , AL) observed 0220 UTC 24 June 2019
Temperature: 21.0°C (70°F)
Dewpoint: 20.0°C (68°F) [RH = 94%]
Pressure (altimeter): 29.94 inches Hg (1014.0 mb)
Winds: from the S (170 degrees) at 1 MPH (1 knots; 0.5 m/s)
Visibility: 6 or more miles (10+ km)
Ceiling: at least 12,000 feet AGL
Clouds: few clouds at 1500 feet AGL
scattered clouds at 9400 feet AGL
Weather: no significant weather observed at this time

METAR text: LATI 240150Z VRB01KT 9999 FEW015 SCT094 21/20 Q1014 NOSIG
Conditions at: LATI (TIRANA , AL) observed 0150 UTC 24 June 2019
Temperature: 21.0°C (70°F)
Dewpoint: 20.0°C (68°F) [RH = 94%]
Pressure (altimeter): 29.94 inches Hg (1014.0 mb)
Winds: variable direction winds at 1 MPH (1 knots; 0.5 m/s)
Visibility: 6 or more miles (10+ km)
Ceiling: at least 12,000 feet AGL
Clouds: few clouds at 1500 feet AGL
scattered clouds at 9400 feet AGL
Weather: no significant weather observed at this time

METAR text: LATI 240120Z VRB01KT 9999 SCT015 21/20 Q1014 NOSIG
Conditions at: LATI (TIRANA , AL) observed 0120 UTC 24 June 2019
Temperature: 21.0°C (70°F)
Dewpoint: 20.0°C (68°F) [RH = 94%]
Pressure (altimeter): 29.94 inches Hg (1014.0 mb)
Winds: variable direction winds at 1 MPH (1 knots; 0.5 m/s)
Visibility: 6 or more miles (10+ km)
Ceiling: at least 12,000 feet AGL
Clouds: scattered clouds at 1500 feet AGL
Weather: no significant weather observed at this time

METAR text: LATI 240050Z 09002KT 9999 SCT015 22/20 Q1014 NOSIG
Conditions at: LATI (TIRANA , AL) observed 0050 UTC 24 June 2019
Temperature: 22.0°C (72°F)
Dewpoint: 20.0°C (68°F) [RH = 88%]
Pressure (altimeter): 29.94 inches Hg (1014.0 mb)
Winds: from the E (90 degrees) at 2 MPH (2 knots; 1.0 m/s)
Visibility: 6 or more miles (10+ km)
Ceiling: at least 12,000 feet AGL
Clouds: scattered clouds at 1500 feet AGL
Weather: no significant weather observed at this time

METAR text: LATI 240020Z VRB01KT 9999 SCT015 22/20 Q1014 NOSIG
Conditions at: LATI (TIRANA , AL) observed 0020 UTC 24 June 2019
Temperature: 22.0°C (72°F)
Dewpoint: 20.0°C (68°F) [RH = 88%]
Pressure (altimeter): 29.94 inches Hg (1014.0 mb)
Winds: variable direction winds at 1 MPH (1 knots; 0.5 m/s)
Visibility: 6 or more miles (10+ km)
Ceiling: at least 12,000 feet AGL
Clouds: scattered clouds at 1500 feet AGL
Weather: no significant weather observed at this time

Forecast for: LATI (TIRANA , AL)
Text: TAF LATI 251100Z 2512/2612 34012KT 9999 FEW050 TX34/2612Z TN20/2603Z
Forecast period: 1200 to 1700 UTC 25 June 2019
Forecast type: FROM: standard forecast or significant change
Winds: from the NNW (340 degrees) at 14 MPH (12 knots; 6.2 m/s)
Visibility: 6 or more miles 10+ km)
Ceiling: at least 12,000 feet AGL
Clouds: few clouds at 5000 feet AGL
Weather: no significant weather forecast for this period
Text: BECMG 2517/2519 VRB03KT
Forecast period: 1700 UTC 25 June 2019 to 1200 UTC 26 June 2019
Forecast type: BECOMING: Conditions expected to become as follows by 1900 UTC 25 June 2019
Winds: variable direction winds at 3 MPH (3 knots; 1.5 m/s)
Visibility: 6 or more miles 10+ km)
Ceiling: at least 12,000 feet AGL
Clouds: few clouds at 5000 feet AGL
Weather: no significant weather forecast for this period